sensor_id;sensor_type;location;lat;lon;timestamp;temperature;humidity
23283;DHT22;11810;51.178;3.878;2023-03-14T00:00:59;10.90;99.90
23283;DHT22;11810;51.178;3.878;2023-03-14T00:03:25;10.90;99.90
23283;DHT22;11810;51.178;3.878;2023-03-14T00:05:51;10.90;99.90
23283;DHT22;11810;51.178;3.878;2023-03-14T00:08:17;10.90;99.90
23283;DHT22;11810;51.178;3.878;2023-03-14T00:10:43;10.90;99.90
23283;DHT22;11810;51.178;3.878;2023-03-14T00:13:09;10.90;99.90
23283;DHT22;11810;51.178;3.878;2023-03-14T00:15:35;11.00;99.90
23283;DHT22;11810;51.178;3.878;2023-03-14T00:18:01;11.00;99.90
23283;DHT22;11810;51.178;3.878;2023-03-14T00:20:27;11.00;99.90
23283;DHT22;11810;51.178;3.878;2023-03-14T00:22:53;10.90;99.90
23283;DHT22;11810;51.178;3.878;2023-03-14T00:25:19;10.90;99.90
23283;DHT22;11810;51.178;3.878;2023-03-14T00:27:45;11.00;99.90
23283;DHT22;11810;51.178;3.878;2023-03-14T00:30:11;10.90;99.90
23283;DHT22;11810;51.178;3.878;2023-03-14T00:32:37;11.00;99.90
23283;DHT22;11810;51.178;3.878;2023-03-14T00:35:03;11.10;99.90
23283;DHT22;11810;51.178;3.878;2023-03-14T00:37:30;11.20;99.90
23283;DHT22;11810;51.178;3.878;2023-03-14T00:39:56;11.30;99.90
23283;DHT22;11810;51.178;3.878;2023-03-14T00:42:24;11.20;99.90
23283;DHT22;11810;51.178;3.878;2023-03-14T00:44:50;11.20;99.90
23283;DHT22;11810;51.178;3.878;2023-03-14T00:47:16;11.00;99.90
23283;DHT22;11810;51.178;3.878;2023-03-14T00:49:42;10.90;99.90
23283;DHT22;11810;51.178;3.878;2023-03-14T00:52:09;10.90;99.90
23283;DHT22;11810;51.178;3.878;2023-03-14T00:54:35;10.80;99.90
23283;DHT22;11810;51.178;3.878;2023-03-14T00:57:01;10.70;99.90
23283;DHT22;11810;51.178;3.878;2023-03-14T00:59:27;10.70;99.90
23283;DHT22;11810;51.178;3.878;2023-03-14T01:01:53;10.70;99.90
23283;DHT22;11810;51.178;3.878;2023-03-14T01:04:19;10.50;99.90
23283;DHT22;11810;51.178;3.878;2023-03-14T01:06:45;10.60;99.90
23283;DHT22;11810;51.178;3.878;2023-03-14T01:09:11;10.60;99.90
23283;DHT22;11810;51.178;3.878;2023-03-14T01:11:37;10.60;99.90
23283;DHT22;11810;51.178;3.878;2023-03-14T01:14:03;10.70;99.90
23283;DHT22;11810;51.178;3.878;2023-03-14T01:16:31;10.60;99.90
23283;DHT22;11810;51.178;3.878;2023-03-14T01:18:57;10.70;99.90
23283;DHT22;11810;51.178;3.878;2023-03-14T01:21:25;10.70;99.90
23283;DHT22;11810;51.178;3.878;2023-03-14T01:23:53;10.80;99.90
23283;DHT22;11810;51.178;3.878;2023-03-14T01:26:21;10.70;99.90
23283;DHT22;11810;51.178;3.878;2023-03-14T01:28:49;10.70;99.90
23283;DHT22;11810;51.178;3.878;2023-03-14T01:31:16;10.70;99.90
23283;DHT22;11810;51.178;3.878;2023-03-14T01:33:42;10.60;99.90
23283;DHT22;11810;51.178;3.878;2023-03-14T01:36:09;10.60;99.90
23283;DHT22;11810;51.178;3.878;2023-03-14T01:38:38;10.60;99.90
23283;DHT22;11810;51.178;3.878;2023-03-14T01:41:07;10.60;99.90
23283;DHT22;11810;51.178;3.878;2023-03-14T01:43:33;10.70;99.90
23283;DHT22;11810;51.178;3.878;2023-03-14T01:51:05;10.90;99.90
23283;DHT22;11810;51.178;3.878;2023-03-14T01:53:32;10.90;99.90
23283;DHT22;11810;51.178;3.878;2023-03-14T01:55:59;10.90;99.90
23283;DHT22;11810;51.178;3.878;2023-03-14T01:58:27;10.80;99.90
23283;DHT22;11810;51.178;3.878;2023-03-14T02:00:57;10.90;99.90
23283;DHT22;11810;51.178;3.878;2023-03-14T02:03:25;10.90;99.90
23283;DHT22;11810;51.178;3.878;2023-03-14T02:05:54;10.90;99.90
23283;DHT22;11810;51.178;3.878;2023-03-14T02:08:22;10.90;99.90
23283;DHT22;11810;51.178;3.878;2023-03-14T02:10:50;11.00;99.90
23283;DHT22;11810;51.178;3.878;2023-03-14T02:13:18;11.00;99.90
23283;DHT22;11810;51.178;3.878;2023-03-14T02:15:44;11.00;99.90
23283;DHT22;11810;51.178;3.878;2023-03-14T02:18:11;11.00;99.90
23283;DHT22;11810;51.178;3.878;2023-03-14T02:23:16;11.10;99.90
23283;DHT22;11810;51.178;3.878;2023-03-14T02:25:49;11.00;99.90
23283;DHT22;11810;51.178;3.878;2023-03-14T02:28:17;11.10;99.90
23283;DHT22;11810;51.178;3.878;2023-03-14T02:30:43;11.10;99.90
23283;DHT22;11810;51.178;3.878;2023-03-14T02:33:17;11.20;99.90
23283;DHT22;11810;51.178;3.878;2023-03-14T02:35:56;11.20;99.90
23283;DHT22;11810;51.178;3.878;2023-03-14T02:38:24;11.10;99.90
23283;DHT22;11810;51.178;3.878;2023-03-14T02:40:52;11.20;99.90
23283;DHT22;11810;51.178;3.878;2023-03-14T02:43:18;11.10;99.90
23283;DHT22;11810;51.178;3.878;2023-03-14T02:45:46;11.00;99.90
23283;DHT22;11810;51.178;3.878;2023-03-14T02:48:26;11.00;99.90
23283;DHT22;11810;51.178;3.878;2023-03-14T02:50:56;10.90;99.90
23283;DHT22;11810;51.178;3.878;2023-03-14T02:53:26;11.00;99.90
23283;DHT22;11810;51.178;3.878;2023-03-14T02:55:52;10.90;99.90
23283;DHT22;11810;51.178;3.878;2023-03-14T02:58:19;11.00;99.90
23283;DHT22;11810;51.178;3.878;2023-03-14T03:02:39;11.00;99.90
23283;DHT22;11810;51.178;3.878;2023-03-14T03:05:05;10.90;99.90
23283;DHT22;11810;51.178;3.878;2023-03-14T03:07:31;10.80;99.90
23283;DHT22;11810;51.178;3.878;2023-03-14T03:09:57;10.90;99.90
23283;DHT22;11810;51.178;3.878;2023-03-14T03:12:23;10.90;99.90
23283;DHT22;11810;51.178;3.878;2023-03-14T03:14:49;11.00;99.90
23283;DHT22;11810;51.178;3.878;2023-03-14T03:17:15;11.10;99.90
23283;DHT22;11810;51.178;3.878;2023-03-14T03:19:41;11.00;99.90
23283;DHT22;11810;51.178;3.878;2023-03-14T03:22:07;10.90;99.90
23283;DHT22;11810;51.178;3.878;2023-03-14T03:24:33;10.90;99.90
23283;DHT22;11810;51.178;3.878;2023-03-14T03:26:59;11.00;99.90
23283;DHT22;11810;51.178;3.878;2023-03-14T03:29:25;11.00;99.90
23283;DHT22;11810;51.178;3.878;2023-03-14T03:31:50;10.90;99.90
23283;DHT22;11810;51.178;3.878;2023-03-14T03:34:16;10.90;99.90
23283;DHT22;11810;51.178;3.878;2023-03-14T03:36:42;11.00;99.90
23283;DHT22;11810;51.178;3.878;2023-03-14T03:39:08;11.00;99.90
23283;DHT22;11810;51.178;3.878;2023-03-14T03:41:34;11.00;99.90
23283;DHT22;11810;51.178;3.878;2023-03-14T03:44:00;11.00;99.90
23283;DHT22;11810;51.178;3.878;2023-03-14T03:46:26;11.00;99.90
23283;DHT22;11810;51.178;3.878;2023-03-14T03:48:56;11.20;99.90
23283;DHT22;11810;51.178;3.878;2023-03-14T03:51:22;11.10;99.90
23283;DHT22;11810;51.178;3.878;2023-03-14T03:53:48;11.10;99.90
23283;DHT22;11810;51.178;3.878;2023-03-14T03:56:14;11.10;99.90
23283;DHT22;11810;51.178;3.878;2023-03-14T03:58:40;11.20;99.90
23283;DHT22;11810;51.178;3.878;2023-03-14T04:01:08;11.20;99.90
23283;DHT22;11810;51.178;3.878;2023-03-14T04:03:35;11.30;99.90
23283;DHT22;11810;51.178;3.878;2023-03-14T04:06:06;11.20;99.90
23283;DHT22;11810;51.178;3.878;2023-03-14T04:08:32;11.10;99.90
23283;DHT22;11810;51.178;3.878;2023-03-14T04:10:59;11.30;99.90
23283;DHT22;11810;51.178;3.878;2023-03-14T04:13:27;11.20;99.90
23283;DHT22;11810;51.178;3.878;2023-03-14T04:15:53;11.10;99.90
23283;DHT22;11810;51.178;3.878;2023-03-14T04:18:20;11.00;99.90
23283;DHT22;11810;51.178;3.878;2023-03-14T04:20:54;10.90;99.90
23283;DHT22;11810;51.178;3.878;2023-03-14T04:23:21;11.00;99.90
23283;DHT22;11810;51.178;3.878;2023-03-14T04:25:50;11.00;99.90
23283;DHT22;11810;51.178;3.878;2023-03-14T04:28:17;11.10;99.90
23283;DHT22;11810;51.178;3.878;2023-03-14T04:30:43;11.10;99.90
23283;DHT22;11810;51.178;3.878;2023-03-14T04:33:09;11.10;99.90
23283;DHT22;11810;51.178;3.878;2023-03-14T04:35:35;11.00;99.90
23283;DHT22;11810;51.178;3.878;2023-03-14T04:38:01;11.10;99.90
23283;DHT22;11810;51.178;3.878;2023-03-14T04:40:28;11.10;99.90
23283;DHT22;11810;51.178;3.878;2023-03-14T04:42:54;11.10;99.90
23283;DHT22;11810;51.178;3.878;2023-03-14T04:45:20;11.00;99.90
23283;DHT22;11810;51.178;3.878;2023-03-14T04:47:46;10.90;99.90
23283;DHT22;11810;51.178;3.878;2023-03-14T04:50:12;10.80;99.90
23283;DHT22;11810;51.178;3.878;2023-03-14T04:52:38;10.80;99.90
23283;DHT22;11810;51.178;3.878;2023-03-14T04:55:04;10.60;99.90
23283;DHT22;11810;51.178;3.878;2023-03-14T04:57:30;10.70;99.90
23283;DHT22;11810;51.178;3.878;2023-03-14T04:59:56;10.70;99.90
23283;DHT22;11810;51.178;3.878;2023-03-14T05:02:22;10.80;99.90
23283;DHT22;11810;51.178;3.878;2023-03-14T05:04:47;10.80;99.90
23283;DHT22;11810;51.178;3.878;2023-03-14T05:07:13;10.80;99.90
23283;DHT22;11810;51.178;3.878;2023-03-14T05:09:39;10.70;99.90
23283;DHT22;11810;51.178;3.878;2023-03-14T05:12:05;10.70;99.90
23283;DHT22;11810;51.178;3.878;2023-03-14T05:14:31;10.60;99.90
23283;DHT22;11810;51.178;3.878;2023-03-14T05:16:57;10.50;99.90
23283;DHT22;11810;51.178;3.878;2023-03-14T05:19:23;10.60;99.90
23283;DHT22;11810;51.178;3.878;2023-03-14T05:21:49;10.50;99.90
23283;DHT22;11810;51.178;3.878;2023-03-14T05:24:15;10.50;99.90
23283;DHT22;11810;51.178;3.878;2023-03-14T05:26:41;10.40;99.90
23283;DHT22;11810;51.178;3.878;2023-03-14T05:29:07;10.30;99.90
23283;DHT22;11810;51.178;3.878;2023-03-14T05:31:32;10.40;99.90
23283;DHT22;11810;51.178;3.878;2023-03-14T05:33:58;10.40;99.90
23283;DHT22;11810;51.178;3.878;2023-03-14T05:36:24;10.40;99.90
23283;DHT22;11810;51.178;3.878;2023-03-14T05:38:50;10.40;99.90
23283;DHT22;11810;51.178;3.878;2023-03-14T05:41:16;10.30;99.90
23283;DHT22;11810;51.178;3.878;2023-03-14T05:43:42;10.40;99.90
23283;DHT22;11810;51.178;3.878;2023-03-14T05:46:08;10.40;99.90
23283;DHT22;11810;51.178;3.878;2023-03-14T05:48:34;10.30;99.90
23283;DHT22;11810;51.178;3.878;2023-03-14T05:50:59;10.10;99.90
23283;DHT22;11810;51.178;3.878;2023-03-14T05:53:25;9.90;99.90
23283;DHT22;11810;51.178;3.878;2023-03-14T05:55:53;9.70;99.90
23283;DHT22;11810;51.178;3.878;2023-03-14T05:58:19;9.70;99.90
23283;DHT22;11810;51.178;3.878;2023-03-14T06:00:45;9.40;99.90
23283;DHT22;11810;51.178;3.878;2023-03-14T06:03:10;9.10;99.90
23283;DHT22;11810;51.178;3.878;2023-03-14T06:05:36;8.80;99.90
23283;DHT22;11810;51.178;3.878;2023-03-14T06:08:02;8.70;99.90
23283;DHT22;11810;51.178;3.878;2023-03-14T06:10:28;8.60;99.90
23283;DHT22;11810;51.178;3.878;2023-03-14T06:12:54;8.50;99.90
23283;DHT22;11810;51.178;3.878;2023-03-14T06:15:20;8.50;99.90
23283;DHT22;11810;51.178;3.878;2023-03-14T06:17:46;8.40;99.90
23283;DHT22;11810;51.178;3.878;2023-03-14T06:20:12;8.30;99.90
23283;DHT22;11810;51.178;3.878;2023-03-14T06:22:38;8.30;99.90
23283;DHT22;11810;51.178;3.878;2023-03-14T06:25:06;8.20;99.90
23283;DHT22;11810;51.178;3.878;2023-03-14T06:27:32;8.10;99.90
23283;DHT22;11810;51.178;3.878;2023-03-14T06:29:58;8.10;99.90
23283;DHT22;11810;51.178;3.878;2023-03-14T06:32:24;8.10;99.90
23283;DHT22;11810;51.178;3.878;2023-03-14T06:34:50;7.90;99.90
23283;DHT22;11810;51.178;3.878;2023-03-14T06:37:16;7.90;99.90
23283;DHT22;11810;51.178;3.878;2023-03-14T06:39:42;7.80;99.90
23283;DHT22;11810;51.178;3.878;2023-03-14T06:42:10;7.80;99.90
23283;DHT22;11810;51.178;3.878;2023-03-14T06:44:36;7.80;99.90
23283;DHT22;11810;51.178;3.878;2023-03-14T06:47:02;7.80;99.90
23283;DHT22;11810;51.178;3.878;2023-03-14T06:49:28;7.90;99.90
23283;DHT22;11810;51.178;3.878;2023-03-14T06:51:54;7.90;99.90
23283;DHT22;11810;51.178;3.878;2023-03-14T06:54:20;7.90;99.90
23283;DHT22;11810;51.178;3.878;2023-03-14T06:56:46;8.00;99.90
23283;DHT22;11810;51.178;3.878;2023-03-14T06:59:12;8.00;99.90
23283;DHT22;11810;51.178;3.878;2023-03-14T07:01:38;7.90;99.90
23283;DHT22;11810;51.178;3.878;2023-03-14T07:04:04;7.90;99.90
23283;DHT22;11810;51.178;3.878;2023-03-14T07:06:30;7.90;99.90
23283;DHT22;11810;51.178;3.878;2023-03-14T07:08:56;7.90;99.90
23283;DHT22;11810;51.178;3.878;2023-03-14T07:11:22;7.90;99.90
23283;DHT22;11810;51.178;3.878;2023-03-14T07:13:48;7.90;99.90
23283;DHT22;11810;51.178;3.878;2023-03-14T07:16:14;7.80;99.90
23283;DHT22;11810;51.178;3.878;2023-03-14T07:18:40;7.80;99.90
23283;DHT22;11810;51.178;3.878;2023-03-14T07:21:07;7.90;99.90
23283;DHT22;11810;51.178;3.878;2023-03-14T07:23:34;7.80;99.90
23283;DHT22;11810;51.178;3.878;2023-03-14T07:26:01;7.90;99.90
23283;DHT22;11810;51.178;3.878;2023-03-14T07:28:27;7.90;99.90
23283;DHT22;11810;51.178;3.878;2023-03-14T07:30:53;8.00;99.90
23283;DHT22;11810;51.178;3.878;2023-03-14T07:33:19;7.90;99.90
23283;DHT22;11810;51.178;3.878;2023-03-14T07:35:47;7.80;99.90
23283;DHT22;11810;51.178;3.878;2023-03-14T07:38:14;7.80;99.90
23283;DHT22;11810;51.178;3.878;2023-03-14T07:40:40;7.80;99.90
23283;DHT22;11810;51.178;3.878;2023-03-14T07:43:06;7.80;99.90
23283;DHT22;11810;51.178;3.878;2023-03-14T07:45:32;7.90;99.90
23283;DHT22;11810;51.178;3.878;2023-03-14T07:47:58;7.70;99.90
23283;DHT22;11810;51.178;3.878;2023-03-14T07:50:28;7.80;99.90
23283;DHT22;11810;51.178;3.878;2023-03-14T07:52:54;7.70;99.90
23283;DHT22;11810;51.178;3.878;2023-03-14T07:55:21;7.60;99.90
23283;DHT22;11810;51.178;3.878;2023-03-14T07:57:46;7.50;99.90
23283;DHT22;11810;51.178;3.878;2023-03-14T08:00:13;7.50;99.90
23283;DHT22;11810;51.178;3.878;2023-03-14T08:02:40;7.60;99.90
23283;DHT22;11810;51.178;3.878;2023-03-14T08:05:06;7.60;99.90
23283;DHT22;11810;51.178;3.878;2023-03-14T08:07:32;7.60;99.90
23283;DHT22;11810;51.178;3.878;2023-03-14T08:09:58;7.60;99.90
23283;DHT22;11810;51.178;3.878;2023-03-14T08:12:24;7.60;99.90
23283;DHT22;11810;51.178;3.878;2023-03-14T08:14:50;7.40;99.90
23283;DHT22;11810;51.178;3.878;2023-03-14T08:17:16;7.60;99.90
23283;DHT22;11810;51.178;3.878;2023-03-14T08:19:42;7.50;99.90
23283;DHT22;11810;51.178;3.878;2023-03-14T08:22:08;7.50;99.90
23283;DHT22;11810;51.178;3.878;2023-03-14T08:24:34;7.60;99.90
23283;DHT22;11810;51.178;3.878;2023-03-14T08:27:00;7.60;99.90
23283;DHT22;11810;51.178;3.878;2023-03-14T08:29:26;7.60;99.90
23283;DHT22;11810;51.178;3.878;2023-03-14T08:31:52;7.70;99.90
23283;DHT22;11810;51.178;3.878;2023-03-14T08:34:19;7.70;99.90
23283;DHT22;11810;51.178;3.878;2023-03-14T08:36:45;7.60;99.90
23283;DHT22;11810;51.178;3.878;2023-03-14T08:39:11;7.40;99.90
23283;DHT22;11810;51.178;3.878;2023-03-14T08:41:37;7.30;99.90
23283;DHT22;11810;51.178;3.878;2023-03-14T08:44:09;7.30;99.90
23283;DHT22;11810;51.178;3.878;2023-03-14T08:46:35;7.30;99.90
23283;DHT22;11810;51.178;3.878;2023-03-14T08:49:01;7.40;99.90
23283;DHT22;11810;51.178;3.878;2023-03-14T08:51:27;7.40;99.90
23283;DHT22;11810;51.178;3.878;2023-03-14T08:53:53;7.40;99.90
23283;DHT22;11810;51.178;3.878;2023-03-14T08:56:19;7.60;99.90
23283;DHT22;11810;51.178;3.878;2023-03-14T08:58:45;8.00;99.90
23283;DHT22;11810;51.178;3.878;2023-03-14T09:01:11;8.10;99.90
23283;DHT22;11810;51.178;3.878;2023-03-14T09:03:37;8.20;99.90
23283;DHT22;11810;51.178;3.878;2023-03-14T09:06:09;8.30;99.90
23283;DHT22;11810;51.178;3.878;2023-03-14T09:08:36;8.30;99.90
23283;DHT22;11810;51.178;3.878;2023-03-14T09:11:02;8.20;99.90
23283;DHT22;11810;51.178;3.878;2023-03-14T09:13:28;8.20;99.90
23283;DHT22;11810;51.178;3.878;2023-03-14T09:15:55;8.00;99.90
23283;DHT22;11810;51.178;3.878;2023-03-14T09:18:22;8.00;99.90
23283;DHT22;11810;51.178;3.878;2023-03-14T09:20:48;8.00;99.90
23283;DHT22;11810;51.178;3.878;2023-03-14T09:23:15;7.90;99.90
23283;DHT22;11810;51.178;3.878;2023-03-14T09:25:41;7.80;99.90
23283;DHT22;11810;51.178;3.878;2023-03-14T09:28:07;7.70;99.90
23283;DHT22;11810;51.178;3.878;2023-03-14T09:30:33;7.80;99.90
23283;DHT22;11810;51.178;3.878;2023-03-14T09:32:59;7.70;99.90
23283;DHT22;11810;51.178;3.878;2023-03-14T09:37:27;7.40;99.90
23283;DHT22;11810;51.178;3.878;2023-03-14T09:39:53;7.30;99.90
23283;DHT22;11810;51.178;3.878;2023-03-14T09:42:25;7.30;99.90
23283;DHT22;11810;51.178;3.878;2023-03-14T09:44:59;7.30;99.90
23283;DHT22;11810;51.178;3.878;2023-03-14T09:47:27;7.40;99.90
23283;DHT22;11810;51.178;3.878;2023-03-14T09:49:53;7.30;99.90
23283;DHT22;11810;51.178;3.878;2023-03-14T09:52:27;7.20;99.90
23283;DHT22;11810;51.178;3.878;2023-03-14T09:57:25;7.20;99.90
23283;DHT22;11810;51.178;3.878;2023-03-14T09:59:54;6.90;99.90
23283;DHT22;11810;51.178;3.878;2023-03-14T10:02:35;6.80;99.90
23283;DHT22;11810;51.178;3.878;2023-03-14T10:05:01;6.70;99.90
23283;DHT22;11810;51.178;3.878;2023-03-14T10:07:32;6.80;99.90
23283;DHT22;11810;51.178;3.878;2023-03-14T10:09:59;6.80;99.90
23283;DHT22;11810;51.178;3.878;2023-03-14T10:12:33;6.80;99.90
23283;DHT22;11810;51.178;3.878;2023-03-14T10:15:11;6.70;99.90
23283;DHT22;11810;51.178;3.878;2023-03-14T10:17:47;6.70;99.90
23283;DHT22;11810;51.178;3.878;2023-03-14T10:20:27;6.70;99.90
23283;DHT22;11810;51.178;3.878;2023-03-14T10:22:55;6.70;99.90
23283;DHT22;11810;51.178;3.878;2023-03-14T10:25:27;6.70;99.90
23283;DHT22;11810;51.178;3.878;2023-03-14T10:27:54;6.80;99.90
23283;DHT22;11810;51.178;3.878;2023-03-14T10:30:39;6.80;99.90
23283;DHT22;11810;51.178;3.878;2023-03-14T10:38:31;7.20;99.90
23283;DHT22;11810;51.178;3.878;2023-03-14T10:40:57;7.40;99.90
23283;DHT22;11810;51.178;3.878;2023-03-14T10:43:42;7.60;99.90
23283;DHT22;11810;51.178;3.878;2023-03-14T10:46:17;7.90;99.90
23283;DHT22;11810;51.178;3.878;2023-03-14T10:48:43;8.10;99.90
23283;DHT22;11810;51.178;3.878;2023-03-14T10:53:44;8.50;99.90
23283;DHT22;11810;51.178;3.878;2023-03-14T10:56:34;8.70;99.90
23283;DHT22;11810;51.178;3.878;2023-03-14T10:59:02;9.00;99.90
23283;DHT22;11810;51.178;3.878;2023-03-14T11:21:17;9.00;99.90
23283;DHT22;11810;51.178;3.878;2023-03-14T11:26:36;8.40;99.90
23283;DHT22;11810;51.178;3.878;2023-03-14T11:29:20;8.00;99.90
23283;DHT22;11810;51.178;3.878;2023-03-14T11:31:47;7.70;99.90
23283;DHT22;11810;51.178;3.878;2023-03-14T11:41:16;7.90;99.90
23283;DHT22;11810;51.178;3.878;2023-03-14T11:43:48;8.00;99.90
23283;DHT22;11810;51.178;3.878;2023-03-14T11:46:29;8.10;99.90
23283;DHT22;11810;51.178;3.878;2023-03-14T11:51:36;8.10;99.90
23283;DHT22;11810;51.178;3.878;2023-03-14T11:56:52;8.10;99.90
23283;DHT22;11810;51.178;3.878;2023-03-14T12:02:19;7.80;99.90
23283;DHT22;11810;51.178;3.878;2023-03-14T12:04:53;7.90;99.90
23283;DHT22;11810;51.178;3.878;2023-03-14T12:07:29;8.10;99.90
23283;DHT22;11810;51.178;3.878;2023-03-14T12:09:58;8.00;99.90
23283;DHT22;11810;51.178;3.878;2023-03-14T12:12:26;8.20;99.90
23283;DHT22;11810;51.178;3.878;2023-03-14T12:14:59;8.50;99.90
23283;DHT22;11810;51.178;3.878;2023-03-14T12:17:40;8.50;99.90
23283;DHT22;11810;51.178;3.878;2023-03-14T12:20:20;8.60;99.90
23283;DHT22;11810;51.178;3.878;2023-03-14T12:23:01;8.70;99.90
23283;DHT22;11810;51.178;3.878;2023-03-14T12:25:30;8.90;99.90
23283;DHT22;11810;51.178;3.878;2023-03-14T12:33:12;8.60;99.90
23283;DHT22;11810;51.178;3.878;2023-03-14T12:35:50;8.50;99.90
23283;DHT22;11810;51.178;3.878;2023-03-14T12:38:25;8.40;99.90
23283;DHT22;11810;51.178;3.878;2023-03-14T12:43:32;8.20;99.90
23283;DHT22;11810;51.178;3.878;2023-03-14T12:46:28;8.10;99.90
23283;DHT22;11810;51.178;3.878;2023-03-14T12:51:40;8.00;99.90
23283;DHT22;11810;51.178;3.878;2023-03-14T13:00:37;7.70;99.90
23283;DHT22;11810;51.178;3.878;2023-03-14T13:03:25;7.80;99.90
23283;DHT22;11810;51.178;3.878;2023-03-14T13:06:00;7.90;99.90
23283;DHT22;11810;51.178;3.878;2023-03-14T13:08:42;8.10;99.90
23283;DHT22;11810;51.178;3.878;2023-03-14T13:11:21;8.20;99.90
23283;DHT22;11810;51.178;3.878;2023-03-14T13:13:55;8.10;99.90
23283;DHT22;11810;51.178;3.878;2023-03-14T13:16:22;8.30;99.90
23283;DHT22;11810;51.178;3.878;2023-03-14T13:21:35;8.10;99.90
23283;DHT22;11810;51.178;3.878;2023-03-14T13:24:07;8.10;99.90
23283;DHT22;11810;51.178;3.878;2023-03-14T13:26:44;8.30;99.90
23283;DHT22;11810;51.178;3.878;2023-03-14T13:31:47;8.40;99.90
23283;DHT22;11810;51.178;3.878;2023-03-14T13:34:13;8.50;99.90
23283;DHT22;11810;51.178;3.878;2023-03-14T13:36:39;8.40;99.90
23283;DHT22;11810;51.178;3.878;2023-03-14T13:39:18;8.50;99.90
23283;DHT22;11810;51.178;3.878;2023-03-14T13:41:45;8.50;99.90
23283;DHT22;11810;51.178;3.878;2023-03-14T13:44:33;8.30;99.90
23283;DHT22;11810;51.178;3.878;2023-03-14T13:47:02;8.10;99.90
23283;DHT22;11810;51.178;3.878;2023-03-14T13:49:30;7.80;99.90
23283;DHT22;11810;51.178;3.878;2023-03-14T13:51:58;7.50;99.90
23283;DHT22;11810;51.178;3.878;2023-03-14T13:54:26;7.30;99.90
23283;DHT22;11810;51.178;3.878;2023-03-14T13:57:04;7.00;99.90
23283;DHT22;11810;51.178;3.878;2023-03-14T13:59:34;6.90;99.90
23283;DHT22;11810;51.178;3.878;2023-03-14T14:02:13;6.70;99.90
23283;DHT22;11810;51.178;3.878;2023-03-14T14:04:40;6.80;99.90
23283;DHT22;11810;51.178;3.878;2023-03-14T14:07:09;6.90;99.90
23283;DHT22;11810;51.178;3.878;2023-03-14T14:09:39;7.20;99.90
23283;DHT22;11810;51.178;3.878;2023-03-14T14:12:13;7.20;99.90
23283;DHT22;11810;51.178;3.878;2023-03-14T14:17:11;7.50;99.90
23283;DHT22;11810;51.178;3.878;2023-03-14T14:19:39;7.70;99.90
23283;DHT22;11810;51.178;3.878;2023-03-14T14:22:08;7.70;99.90
23283;DHT22;11810;51.178;3.878;2023-03-14T14:24:36;7.80;99.90
23283;DHT22;11810;51.178;3.878;2023-03-14T14:29:35;7.70;99.90
23283;DHT22;11810;51.178;3.878;2023-03-14T14:35:06;7.80;99.90
23283;DHT22;11810;51.178;3.878;2023-03-14T14:37:35;7.90;99.90
23283;DHT22;11810;51.178;3.878;2023-03-14T14:40:22;7.90;99.90
23283;DHT22;11810;51.178;3.878;2023-03-14T14:42:49;7.90;99.90
23283;DHT22;11810;51.178;3.878;2023-03-14T14:45:24;7.90;99.90
23283;DHT22;11810;51.178;3.878;2023-03-14T14:47:51;7.80;99.90
23283;DHT22;11810;51.178;3.878;2023-03-14T14:50:31;7.80;99.90
23283;DHT22;11810;51.178;3.878;2023-03-14T14:53:02;7.90;99.90
23283;DHT22;11810;51.178;3.878;2023-03-14T14:55:33;7.80;99.90
23283;DHT22;11810;51.178;3.878;2023-03-14T14:58:20;7.70;99.90
23283;DHT22;11810;51.178;3.878;2023-03-14T15:03:37;7.70;99.90
23283;DHT22;11810;51.178;3.878;2023-03-14T15:06:03;7.70;99.90
23283;DHT22;11810;51.178;3.878;2023-03-14T15:08:29;7.60;99.90
23283;DHT22;11810;51.178;3.878;2023-03-14T15:10:56;7.50;99.90
23283;DHT22;11810;51.178;3.878;2023-03-14T15:13:22;7.50;99.90
23283;DHT22;11810;51.178;3.878;2023-03-14T15:15:52;7.60;99.90
23283;DHT22;11810;51.178;3.878;2023-03-14T15:18:25;7.60;99.90
23283;DHT22;11810;51.178;3.878;2023-03-14T15:20:54;7.60;99.90
23283;DHT22;11810;51.178;3.878;2023-03-14T15:23:21;7.70;99.90
23283;DHT22;11810;51.178;3.878;2023-03-14T15:25:47;7.70;99.90
23283;DHT22;11810;51.178;3.878;2023-03-14T15:28:19;7.80;99.90
23283;DHT22;11810;51.178;3.878;2023-03-14T15:30:48;7.90;99.90
23283;DHT22;11810;51.178;3.878;2023-03-14T15:33:14;7.80;99.90
23283;DHT22;11810;51.178;3.878;2023-03-14T15:35:40;7.80;99.90
23283;DHT22;11810;51.178;3.878;2023-03-14T15:38:18;7.90;99.90
23283;DHT22;11810;51.178;3.878;2023-03-14T15:40:51;7.90;99.90
23283;DHT22;11810;51.178;3.878;2023-03-14T15:43:18;7.90;99.90
23283;DHT22;11810;51.178;3.878;2023-03-14T15:45:44;7.90;99.90
23283;DHT22;11810;51.178;3.878;2023-03-14T15:48:18;8.00;99.90
23283;DHT22;11810;51.178;3.878;2023-03-14T15:50:45;8.00;99.90
23283;DHT22;11810;51.178;3.878;2023-03-14T15:53:12;8.10;99.90
23283;DHT22;11810;51.178;3.878;2023-03-14T15:55:38;8.10;99.90
23283;DHT22;11810;51.178;3.878;2023-03-14T15:58:04;8.10;99.90
23283;DHT22;11810;51.178;3.878;2023-03-14T16:00:30;8.30;99.90
23283;DHT22;11810;51.178;3.878;2023-03-14T16:02:57;8.90;99.90
23283;DHT22;11810;51.178;3.878;2023-03-14T16:05:23;9.20;99.90
23283;DHT22;11810;51.178;3.878;2023-03-14T16:07:49;9.40;99.90
23283;DHT22;11810;51.178;3.878;2023-03-14T16:10:16;9.40;99.90
23283;DHT22;11810;51.178;3.878;2023-03-14T16:12:42;9.50;99.90
23283;DHT22;11810;51.178;3.878;2023-03-14T16:15:09;9.20;99.90
23283;DHT22;11810;51.178;3.878;2023-03-14T16:17:35;9.00;99.90
23283;DHT22;11810;51.178;3.878;2023-03-14T16:20:03;8.90;99.90
23283;DHT22;11810;51.178;3.878;2023-03-14T16:22:29;8.50;99.90
23283;DHT22;11810;51.178;3.878;2023-03-14T16:25:01;8.40;99.90
23283;DHT22;11810;51.178;3.878;2023-03-14T16:27:27;8.30;99.90
23283;DHT22;11810;51.178;3.878;2023-03-14T16:29:55;8.10;99.90
23283;DHT22;11810;51.178;3.878;2023-03-14T16:32:21;7.90;99.90
23283;DHT22;11810;51.178;3.878;2023-03-14T16:34:46;7.80;99.90
23283;DHT22;11810;51.178;3.878;2023-03-14T16:37:12;7.70;99.90
23283;DHT22;11810;51.178;3.878;2023-03-14T16:39:38;7.80;99.90
23283;DHT22;11810;51.178;3.878;2023-03-14T16:42:04;7.80;99.90
23283;DHT22;11810;51.178;3.878;2023-03-14T16:44:30;7.90;99.90
23283;DHT22;11810;51.178;3.878;2023-03-14T16:46:56;7.90;99.90
23283;DHT22;11810;51.178;3.878;2023-03-14T16:49:22;7.90;99.90
23283;DHT22;11810;51.178;3.878;2023-03-14T16:51:48;7.80;99.90
23283;DHT22;11810;51.178;3.878;2023-03-14T16:54:14;7.70;99.90
23283;DHT22;11810;51.178;3.878;2023-03-14T16:56:40;7.70;99.90
23283;DHT22;11810;51.178;3.878;2023-03-14T16:59:06;7.60;99.90
23283;DHT22;11810;51.178;3.878;2023-03-14T17:01:32;7.50;99.90
23283;DHT22;11810;51.178;3.878;2023-03-14T17:03:58;7.30;99.90
23283;DHT22;11810;51.178;3.878;2023-03-14T17:06:26;7.30;99.90
23283;DHT22;11810;51.178;3.878;2023-03-14T17:08:53;7.30;99.90
23283;DHT22;11810;51.178;3.878;2023-03-14T17:11:19;7.40;99.90
23283;DHT22;11810;51.178;3.878;2023-03-14T17:13:45;7.40;99.90
23283;DHT22;11810;51.178;3.878;2023-03-14T17:16:11;7.40;99.90
23283;DHT22;11810;51.178;3.878;2023-03-14T17:18:37;7.30;99.90